Time;durP1;ratioP1;P1;durP2;ratioP2;P2;SDS_P1;SDS_P2;PMS_P1;PMS_P2;Temp;Humidity;BMP_temperature;BMP_pressure;BME280_temperature;BME280_humidity;BME280_pressure;Samples;Min_cycle;Max_cycle;Signal;HPM_P1;HPM_P2
2023/12/13 00:01:24;;;;;;;2.70;2.50;;;8.10;99.90;;;;;;5074610;28;20265;-86
2023/12/13 00:03:51;;;;;;;3.87;3.00;;;8.20;99.90;;;;;;5075417;28;20205;-86
2023/12/13 00:06:19;;;;;;;3.37;3.00;;;8.10;99.90;;;;;;5074526;28;20238;-84
2023/12/13 00:08:46;;;;;;;2.70;2.47;;;8.10;99.90;;;;;;5074457;28;20220;-83
2023/12/13 00:11:13;;;;;;;2.63;2.33;;;8.00;99.90;;;;;;5074433;28;20667;-84
2023/12/13 00:13:40;;;;;;;2.53;2.00;;;8.00;99.90;;;;;;5074173;28;20598;-82
2023/12/13 00:16:08;;;;;;;2.20;1.57;;;8.10;99.90;;;;;;5074055;28;20204;-81
2023/12/13 00:18:35;;;;;;;2.27;1.90;;;8.10;99.90;;;;;;5073865;28;20203;-82
2023/12/13 00:21:01;;;;;;;2.17;1.80;;;8.00;99.90;;;;;;5074577;28;20201;-82
2023/12/13 00:23:30;;;;;;;2.37;1.67;;;8.00;99.90;;;;;;5073991;28;20201;-82
2023/12/13 00:25:57;;;;;;;2.47;1.50;;;8.00;99.90;;;;;;5073892;28;20197;-82
2023/12/13 00:28:23;;;;;;;2.60;1.60;;;8.00;99.90;;;;;;5073743;28;20714;-82
2023/12/13 00:30:50;;;;;;;2.10;1.40;;;8.00;99.90;;;;;;5073795;28;20203;-82
2023/12/13 00:33:17;;;;;;;5.10;1.70;;;8.00;99.90;;;;;;5073356;28;20614;-81
2023/12/13 00:35:43;;;;;;;1.80;1.30;;;8.00;99.90;;;;;;5073681;28;20200;-80
2023/12/13 00:38:11;;;;;;;3.27;1.47;;;8.00;99.90;;;;;;5073400;28;20197;-80
2023/12/13 00:40:39;;;;;;;1.77;1.30;;;8.00;99.90;;;;;;5073527;28;20203;-80
2023/12/13 00:43:05;;;;;;;2.87;1.53;;;7.90;99.90;;;;;;5073449;28;20212;-79
2023/12/13 00:45:32;;;;;;;3.07;1.50;;;8.00;99.90;;;;;;5073340;28;20201;-79
2023/12/13 00:47:58;;;;;;;1.60;1.20;;;7.90;99.90;;;;;;5073525;28;20201;-79
2023/12/13 00:50:25;;;;;;;2.67;1.30;;;7.90;99.90;;;;;;5073284;28;20364;-78
2023/12/13 00:52:52;;;;;;;2.60;1.37;;;7.90;99.90;;;;;;5073159;28;20273;-79
2023/12/13 00:55:18;;;;;;;3.23;1.27;;;7.90;99.90;;;;;;5073066;28;20255;-78
2023/12/13 00:57:46;;;;;;;1.83;1.47;;;7.90;99.90;;;;;;5073324;28;20243;-79
2023/12/13 01:00:14;;;;;;;2.63;1.60;;;7.90;99.90;;;;;;5073224;28;20538;-79
2023/12/13 01:02:41;;;;;;;3.43;1.60;;;7.90;99.90;;;;;;5073119;28;20197;-79
2023/12/13 01:05:08;;;;;;;3.87;1.70;;;7.80;99.90;;;;;;5073016;28;20591;-79
2023/12/13 01:07:35;;;;;;;2.97;1.50;;;7.90;99.90;;;;;;5072998;28;20197;-78
2023/12/13 01:10:02;;;;;;;4.23;1.80;;;7.90;99.90;;;;;;5073057;28;20244;-78
2023/12/13 01:12:29;;;;;;;2.70;1.60;;;7.80;99.90;;;;;;5072925;28;20769;-79
2023/12/13 01:14:57;;;;;;;2.23;1.43;;;7.80;99.90;;;;;;5072861;28;20200;-79
2023/12/13 01:17:23;;;;;;;3.13;1.60;;;7.80;99.90;;;;;;5073330;28;20231;-79
2023/12/13 01:19:52;;;;;;;5.40;1.77;;;7.80;99.90;;;;;;5074275;28;20196;-77
2023/12/13 01:22:18;;;;;;;5.17;1.70;;;7.80;99.90;;;;;;5074680;28;20362;-78
2023/12/13 01:24:45;;;;;;;2.87;1.77;;;7.70;99.90;;;;;;5072776;28;20201;-78
2023/12/13 01:27:11;;;;;;;4.33;1.67;;;7.90;99.90;;;;;;5072832;28;20197;-77
2023/12/13 01:29:38;;;;;;;4.77;1.70;;;7.80;99.90;;;;;;5072536;28;20618;-77
2023/12/13 01:32:07;;;;;;;3.30;1.60;;;7.80;99.90;;;;;;5072772;28;20278;-78
2023/12/13 01:34:34;;;;;;;3.83;1.63;;;7.70;99.90;;;;;;5072733;28;20222;-78
2023/12/13 01:37:01;;;;;;;4.33;1.50;;;7.70;99.90;;;;;;5072585;28;20599;-79
2023/12/13 01:39:28;;;;;;;5.03;1.57;;;7.60;99.90;;;;;;5072553;28;20193;-78
2023/12/13 01:41:54;;;;;;;6.30;1.70;;;7.60;99.90;;;;;;5072681;28;20302;-78
2023/12/13 01:44:21;;;;;;;4.70;1.53;;;7.50;99.90;;;;;;5072711;28;20209;-78
2023/12/13 01:46:48;;;;;;;3.13;1.60;;;7.50;99.90;;;;;;5072438;28;20530;-77
2023/12/13 01:49:16;;;;;;;6.23;1.87;;;7.50;99.90;;;;;;5072422;28;20648;-78
2023/12/13 01:51:44;;;;;;;3.97;1.50;;;7.40;99.90;;;;;;5072352;28;20250;-78
2023/12/13 01:54:13;;;;;;;2.77;1.30;;;7.40;99.90;;;;;;5072486;28;20231;-78
2023/12/13 01:56:42;;;;;;;5.30;1.70;;;7.50;99.90;;;;;;5072365;28;20204;-78
2023/12/13 01:59:09;;;;;;;3.90;1.40;;;7.50;99.90;;;;;;5072571;28;20254;-78
2023/12/13 02:01:36;;;;;;;4.63;1.30;;;7.50;99.90;;;;;;5072483;28;20198;-77
2023/12/13 02:04:03;;;;;;;6.60;1.50;;;7.40;99.90;;;;;;5072492;28;20201;-78
2023/12/13 02:06:31;;;;;;;3.80;1.50;;;7.50;99.90;;;;;;5076075;28;20196;-76
2023/12/13 02:08:58;;;;;;;3.33;1.50;;;7.40;99.90;;;;;;5076117;28;20193;-78
2023/12/13 02:11:24;;;;;;;4.20;1.73;;;7.40;99.90;;;;;;5076511;28;20201;-78
2023/12/13 02:13:52;;;;;;;4.03;1.43;;;7.50;99.90;;;;;;5076187;28;20285;-78
2023/12/13 02:16:18;;;;;;;2.33;1.30;;;7.50;99.90;;;;;;5075955;28;20207;-78
2023/12/13 02:18:45;;;;;;;2.00;1.30;;;7.50;99.90;;;;;;5076254;28;20586;-77
2023/12/13 02:21:11;;;;;;;5.23;1.37;;;7.40;99.90;;;;;;5076031;28;20200;-77
2023/12/13 02:23:40;;;;;;;1.70;1.33;;;7.50;99.90;;;;;;5075920;28;20204;-77
2023/12/13 02:26:07;;;;;;;3.43;1.23;;;7.50;99.90;;;;;;5076233;28;20545;-77
2023/12/13 02:28:33;;;;;;;3.10;1.37;;;7.40;99.90;;;;;;5076176;28;20197;-78
2023/12/13 02:31:03;;;;;;;3.83;1.40;;;7.40;99.90;;;;;;5075868;28;20200;-79
2023/12/13 02:33:31;;;;;;;3.87;1.47;;;7.30;99.90;;;;;;5075617;28;20228;-79
2023/12/13 02:35:59;;;;;;;3.10;1.43;;;7.30;99.90;;;;;;5075909;28;20235;-80
2023/12/13 02:38:26;;;;;;;3.90;1.47;;;7.20;99.90;;;;;;5075912;28;20201;-79
2023/12/13 02:40:54;;;;;;;2.47;1.30;;;7.20;99.90;;;;;;5075853;28;20648;-79
2023/12/13 02:43:20;;;;;;;3.90;1.50;;;7.20;99.90;;;;;;5076011;28;20243;-79
2023/12/13 02:45:47;;;;;;;3.60;1.37;;;7.20;99.90;;;;;;5076605;28;20223;-79
2023/12/13 02:48:14;;;;;;;4.97;1.50;;;7.10;99.90;;;;;;5082382;28;20193;-78
2023/12/13 02:50:40;;;;;;;5.27;1.40;;;7.20;99.90;;;;;;5075935;28;20234;-78
2023/12/13 02:53:07;;;;;;;3.93;1.63;;;7.20;99.90;;;;;;5075532;28;20231;-78
2023/12/13 02:55:34;;;;;;;3.33;1.37;;;7.20;99.90;;;;;;5075793;28;20231;-79
2023/12/13 02:58:02;;;;;;;3.80;1.50;;;7.20;99.90;;;;;;5075537;28;20200;-78
2023/12/13 03:00:29;;;;;;;3.97;1.70;;;7.20;99.90;;;;;;5075468;28;20213;-77
2023/12/13 03:02:57;;;;;;;2.87;1.50;;;7.20;99.90;;;;;;5075283;28;20259;-77
2023/12/13 03:05:24;;;;;;;3.00;1.47;;;7.20;99.90;;;;;;5075171;28;20227;-77
2023/12/13 03:07:51;;;;;;;2.83;1.40;;;7.20;99.90;;;;;;5075305;28;20193;-77
2023/12/13 03:10:18;;;;;;;4.83;1.47;;;7.10;99.90;;;;;;5075345;28;20201;-77
2023/12/13 03:12:44;;;;;;;2.93;1.57;;;7.00;99.90;;;;;;5074962;28;20224;-76
2023/12/13 03:15:12;;;;;;;4.30;1.50;;;6.90;99.90;;;;;;5075239;28;20219;-77
2023/12/13 03:17:39;;;;;;;5.50;1.67;;;6.90;99.90;;;;;;5073826;28;20646;-78
2023/12/13 03:20:08;;;;;;;2.33;1.37;;;6.90;99.90;;;;;;5074823;28;20257;-78
2023/12/13 03:22:35;;;;;;;3.10;1.63;;;6.90;99.90;;;;;;5074780;28;20665;-77
2023/12/13 03:25:01;;;;;;;5.40;1.60;;;7.00;99.90;;;;;;5074705;28;20208;-78
2023/12/13 03:27:28;;;;;;;5.73;1.67;;;7.00;99.90;;;;;;5075029;28;20197;-77
2023/12/13 03:29:55;;;;;;;4.93;1.90;;;7.10;99.90;;;;;;5074759;28;20197;-77
2023/12/13 03:32:22;;;;;;;2.23;1.70;;;7.20;99.90;;;;;;5074738;28;20275;-77
2023/12/13 03:34:49;;;;;;;5.20;2.03;;;7.20;99.90;;;;;;5074760;28;20201;-77
2023/12/13 03:37:16;;;;;;;4.17;1.80;;;7.20;99.90;;;;;;5074840;28;20246;-77
2023/12/13 03:39:42;;;;;;;4.97;1.87;;;7.20;99.90;;;;;;5074914;28;20641;-77
2023/12/13 03:42:09;;;;;;;7.40;2.33;;;7.20;99.90;;;;;;5074595;28;20251;-77
2023/12/13 03:44:35;;;;;;;4.60;1.80;;;7.20;99.90;;;;;;5074509;28;20196;-77
2023/12/13 03:47:02;;;;;;;4.87;1.70;;;7.20;99.90;;;;;;5074409;28;20538;-76
2023/12/13 03:49:30;;;;;;;2.33;1.73;;;7.10;99.90;;;;;;5074141;28;20229;-77
2023/12/13 03:51:57;;;;;;;4.57;1.93;;;7.10;99.90;;;;;;5074455;28;20205;-77
2023/12/13 03:54:24;;;;;;;2.43;1.70;;;7.10;99.90;;;;;;5074319;28;20229;-77
2023/12/13 03:56:50;;;;;;;4.23;1.80;;;7.10;99.90;;;;;;5074251;28;20753;-77
2023/12/13 03:59:17;;;;;;;3.20;1.80;;;7.10;99.90;;;;;;5074227;28;20259;-76
2023/12/13 04:01:44;;;;;;;2.57;1.87;;;7.10;99.90;;;;;;5074124;28;20201;-77
2023/12/13 04:04:11;;;;;;;2.77;1.80;;;7.10;99.90;;;;;;5074329;28;20247;-76
2023/12/13 04:06:39;;;;;;;6.27;2.10;;;7.10;99.90;;;;;;5074472;28;20201;-76
2023/12/13 04:09:05;;;;;;;4.40;2.00;;;7.10;99.90;;;;;;5074097;28;20204;-76
2023/12/13 04:11:32;;;;;;;4.27;1.93;;;7.10;99.90;;;;;;5073967;28;20657;-76
2023/12/13 04:13:59;;;;;;;3.97;2.13;;;7.10;99.90;;;;;;5073730;28;20258;-76
2023/12/13 04:16:26;;;;;;;4.83;2.50;;;7.10;99.90;;;;;;5074164;28;20197;-76
2023/12/13 04:18:52;;;;;;;3.53;2.33;;;7.10;99.90;;;;;;5073794;28;20287;-76
2023/12/13 04:21:19;;;;;;;5.47;2.70;;;7.10;99.90;;;;;;5073807;28;20197;-75
2023/12/13 04:23:47;;;;;;;3.80;2.80;;;7.10;99.90;;;;;;5073784;28;20193;-76
2023/12/13 04:26:14;;;;;;;4.87;3.10;;;7.10;99.90;;;;;;5073579;28;20197;-75
2023/12/13 04:28:40;;;;;;;4.03;3.40;;;7.10;99.90;;;;;;5073144;28;20206;-75
2023/12/13 04:31:07;;;;;;;5.50;3.93;;;7.00;99.90;;;;;;5073701;28;20205;-75
2023/12/13 04:33:35;;;;;;;5.23;4.40;;;7.00;99.90;;;;;;5073569;28;20229;-75
2023/12/13 04:36:02;;;;;;;6.27;5.10;;;7.00;99.90;;;;;;5073689;28;20220;-76
2023/12/13 04:38:29;;;;;;;5.97;5.10;;;7.00;99.90;;;;;;5073437;28;20254;-75
2023/12/13 04:40:56;;;;;;;7.30;5.70;;;7.00;99.90;;;;;;5073289;28;20201;-75
2023/12/13 04:43:23;;;;;;;9.93;4.93;;;7.00;99.90;;;;;;5073143;28;20227;-76
2023/12/13 04:45:51;;;;;;;6.63;4.23;;;7.00;99.90;;;;;;5073389;28;20201;-76
2023/12/13 04:48:17;;;;;;;8.13;4.67;;;7.00;99.90;;;;;;5073551;28;20212;-76
2023/12/13 04:50:44;;;;;;;7.60;4.23;;;7.00;99.90;;;;;;5073121;28;20557;-76
2023/12/13 04:53:10;;;;;;;7.47;5.20;;;6.90;99.90;;;;;;5072974;28;20752;-76
2023/12/13 04:55:37;;;;;;;9.03;6.63;;;6.90;99.90;;;;;;5073154;28;20246;-76
2023/12/13 04:58:05;;;;;;;6.40;3.87;;;6.90;99.90;;;;;;5073162;28;20551;-76
2023/12/13 05:00:31;;;;;;;6.50;4.30;;;6.90;99.90;;;;;;5073265;28;20291;-76
2023/12/13 05:02:58;;;;;;;6.73;4.73;;;6.90;99.90;;;;;;5073204;28;20294;-76
2023/12/13 05:05:24;;;;;;;8.17;5.27;;;6.90;99.90;;;;;;5073012;28;20254;-76
2023/12/13 05:07:51;;;;;;;7.37;4.73;;;6.90;99.90;;;;;;5073018;28;20201;-75
2023/12/13 05:10:18;;;;;;;11.60;6.83;;;6.80;99.90;;;;;;5072906;28;20201;-76
2023/12/13 05:12:44;;;;;;;7.97;3.90;;;6.80;99.90;;;;;;5073150;28;20260;-76
2023/12/13 05:15:12;;;;;;;5.67;4.67;;;6.70;99.90;;;;;;5072683;28;20606;-75
2023/12/13 05:17:39;;;;;;;7.87;5.10;;;6.80;99.90;;;;;;5072961;28;20193;-75
2023/12/13 05:20:08;;;;;;;6.10;4.53;;;6.80;99.90;;;;;;5072806;28;20202;-76
2023/12/13 05:22:35;;;;;;;9.53;5.20;;;6.80;99.90;;;;;;5072819;28;20632;-76
2023/12/13 05:25:02;;;;;;;7.50;5.60;;;6.80;99.90;;;;;;5072701;28;20342;-75
2023/12/13 05:27:29;;;;;;;7.23;4.30;;;6.90;99.90;;;;;;5072919;28;20204;-75
2023/12/13 05:29:56;;;;;;;5.77;4.43;;;6.90;99.90;;;;;;5072773;28;20252;-75
2023/12/13 05:32:24;;;;;;;7.20;4.10;;;6.90;99.90;;;;;;5072791;28;20200;-75
2023/12/13 05:34:50;;;;;;;7.13;3.90;;;6.90;99.90;;;;;;5072109;28;20262;-75
2023/12/13 05:37:17;;;;;;;4.63;3.37;;;6.90;99.90;;;;;;5072489;28;20259;-75
2023/12/13 05:39:44;;;;;;;7.27;4.73;;;6.90;99.90;;;;;;5073617;28;20700;-75
2023/12/13 05:42:10;;;;;;;8.70;5.03;;;6.90;99.90;;;;;;5076946;28;20205;-75
2023/12/13 05:44:37;;;;;;;5.90;4.87;;;6.90;99.90;;;;;;5076969;28;20196;-75
2023/12/13 05:47:04;;;;;;;10.40;4.63;;;6.90;99.90;;;;;;5076590;28;20653;-76
2023/12/13 05:49:32;;;;;;;8.80;5.90;;;6.90;99.90;;;;;;5076363;28;20744;-75
2023/12/13 05:51:58;;;;;;;7.73;4.37;;;6.90;99.90;;;;;;5076511;28;20254;-76
2023/12/13 05:54:25;;;;;;;10.57;6.73;;;6.90;99.90;;;;;;5076709;28;20266;-75
2023/12/13 05:56:52;;;;;;;8.37;5.67;;;6.90;99.90;;;;;;5076413;28;20594;-75
2023/12/13 05:59:18;;;;;;;6.60;4.67;;;6.90;99.90;;;;;;5076649;28;20252;-75
2023/12/13 06:01:45;;;;;;;11.13;7.40;;;6.90;99.90;;;;;;5076424;28;20200;-75
2023/12/13 06:04:12;;;;;;;7.20;4.80;;;6.90;99.90;;;;;;5076227;28;20197;-76
2023/12/13 06:06:44;;;;;;;9.40;6.30;;;6.90;99.90;;;;;;5076713;28;20265;-75
2023/12/13 06:09:11;;;;;;;5.37;3.43;;;6.90;99.90;;;;;;5076578;28;20202;-75
2023/12/13 06:11:38;;;;;;;5.33;3.17;;;6.80;99.90;;;;;;5076261;28;20197;-76
2023/12/13 06:14:05;;;;;;;8.07;5.63;;;6.80;99.90;;;;;;5076222;28;20217;-75
2023/12/13 06:16:31;;;;;;;12.83;8.57;;;6.80;99.90;;;;;;5082156;28;20201;-75
2023/12/13 06:18:58;;;;;;;10.13;4.70;;;6.80;99.90;;;;;;5076353;28;20200;-76
2023/12/13 06:21:25;;;;;;;4.97;3.67;;;6.70;99.90;;;;;;5076328;28;20204;-75
2023/12/13 06:23:53;;;;;;;5.77;3.53;;;6.70;99.90;;;;;;5076138;28;20208;-76
2023/12/13 06:26:19;;;;;;;4.60;3.53;;;6.70;99.90;;;;;;5075952;28;20203;-75
2023/12/13 06:28:46;;;;;;;6.80;2.80;;;6.70;99.90;;;;;;5075905;28;20204;-75
2023/12/13 06:31:13;;;;;;;7.73;6.93;;;6.70;99.90;;;;;;5075658;28;20193;-75
2023/12/13 06:33:39;;;;;;;17.10;10.50;;;6.70;99.90;;;;;;5075565;28;20759;-76
2023/12/13 06:36:07;;;;;;;7.60;2.53;;;6.80;99.90;;;;;;5075931;28;20255;-75
2023/12/13 06:38:34;;;;;;;5.10;2.57;;;6.70;99.90;;;;;;5076032;28;20238;-76
2023/12/13 06:41:02;;;;;;;8.30;3.00;;;6.70;99.90;;;;;;5075580;28;20197;-75
2023/12/13 06:43:28;;;;;;;4.00;2.60;;;6.60;99.90;;;;;;5075568;28;20201;-76
2023/12/13 06:45:55;;;;;;;8.23;3.30;;;6.70;99.90;;;;;;5075450;28;20685;-75
2023/12/13 06:48:22;;;;;;;4.83;2.90;;;6.60;99.90;;;;;;5075349;28;20200;-75
2023/12/13 06:50:48;;;;;;;7.20;2.73;;;6.60;99.90;;;;;;5074872;28;20306;-75
2023/12/13 06:53:15;;;;;;;6.13;3.23;;;6.60;99.90;;;;;;5075270;28;20288;-75
2023/12/13 06:55:42;;;;;;;9.43;4.77;;;6.60;99.90;;;;;;5075369;28;20205;-75
2023/12/13 06:58:09;;;;;;;4.87;3.83;;;6.70;99.90;;;;;;5075505;28;20262;-76
2023/12/13 07:00:36;;;;;;;5.17;4.27;;;6.70;99.90;;;;;;5075017;28;20652;-75
2023/12/13 07:03:03;;;;;;;6.40;2.93;;;6.70;99.90;;;;;;5075004;28;20197;-76
2023/12/13 07:05:29;;;;;;;5.67;2.97;;;6.70;99.90;;;;;;5075109;28;20209;-75
2023/12/13 07:07:56;;;;;;;5.30;2.60;;;6.70;99.90;;;;;;5075155;28;20251;-75
2023/12/13 07:10:23;;;;;;;5.47;3.60;;;6.70;99.90;;;;;;5075083;28;20247;-76
2023/12/13 07:12:49;;;;;;;4.70;2.90;;;6.70;99.90;;;;;;5075259;28;20197;-76
2023/12/13 07:15:17;;;;;;;6.13;3.67;;;6.70;99.90;;;;;;5074989;28;20282;-75
2023/12/13 07:17:44;;;;;;;5.40;3.80;;;6.80;99.90;;;;;;5075171;28;20205;-75
2023/12/13 07:20:12;;;;;;;5.80;4.40;;;6.90;99.90;;;;;;5074911;28;20662;-76
2023/12/13 07:22:39;;;;;;;5.33;2.97;;;6.80;99.90;;;;;;5074934;28;20201;-76
2023/12/13 07:25:06;;;;;;;9.67;4.80;;;6.90;99.90;;;;;;5074762;28;20193;-76
2023/12/13 07:27:33;;;;;;;5.90;3.10;;;6.80;99.90;;;;;;5074772;28;20198;-76
2023/12/13 07:30:00;;;;;;;7.33;2.97;;;6.90;99.90;;;;;;5074735;28;20197;-75
2023/12/13 07:32:28;;;;;;;5.33;3.00;;;6.90;99.90;;;;;;5074666;28;20734;-76
2023/12/13 07:34:54;;;;;;;8.90;6.47;;;6.90;99.90;;;;;;5074470;28;20725;-76
2023/12/13 07:37:21;;;;;;;10.27;5.10;;;6.90;99.90;;;;;;5074717;28;20258;-76
2023/12/13 07:39:48;;;;;;;9.90;5.70;;;6.90;99.90;;;;;;5074756;28;20607;-75
2023/12/13 07:42:14;;;;;;;3.63;2.97;;;6.90;99.90;;;;;;5074393;28;20249;-75
2023/12/13 07:44:42;;;;;;;11.10;7.93;;;6.90;99.90;;;;;;5074463;28;20197;-75
2023/12/13 07:47:09;;;;;;;6.37;3.20;;;6.90;99.90;;;;;;5074453;28;20330;-74
2023/12/13 07:49:37;;;;;;;3.87;2.30;;;6.90;99.90;;;;;;5074188;28;20233;-74
2023/12/13 07:52:06;;;;;;;6.63;2.90;;;6.90;99.90;;;;;;5074078;28;20664;-74
2023/12/13 07:54:33;;;;;;;2.87;2.17;;;7.00;99.90;;;;;;5073966;28;20217;-75
2023/12/13 07:56:59;;;;;;;6.57;2.60;;;7.00;99.90;;;;;;5073965;28;20274;-75
2023/12/13 07:59:26;;;;;;;6.67;2.43;;;7.00;99.90;;;;;;5074244;28;20220;-74
2023/12/13 08:01:52;;;;;;;7.03;3.80;;;7.00;99.90;;;;;;5073842;28;20197;-75
2023/12/13 08:04:20;;;;;;;9.47;3.80;;;7.10;99.90;;;;;;5073679;28;20208;-74
2023/12/13 08:06:47;;;;;;;7.77;4.13;;;7.10;99.90;;;;;;5073690;28;20193;-75
2023/12/13 08:09:15;;;;;;;3.77;2.50;;;7.10;99.90;;;;;;5073890;28;20534;-74
2023/12/13 08:11:43;;;;;;;5.37;3.10;;;7.20;99.90;;;;;;5073818;28;20603;-76
2023/12/13 08:14:09;;;;;;;4.67;2.90;;;7.20;99.90;;;;;;5074304;28;20225;-77
2023/12/13 08:16:36;;;;;;;6.83;3.40;;;7.20;99.90;;;;;;5073747;28;20196;-77
2023/12/13 08:19:03;;;;;;;6.17;2.60;;;7.20;99.90;;;;;;5073790;28;20193;-77
2023/12/13 08:21:30;;;;;;;8.57;3.70;;;7.30;99.90;;;;;;5073863;28;20251;-77
2023/12/13 08:23:57;;;;;;;5.53;3.43;;;7.30;99.90;;;;;;5073652;28;20193;-77
2023/12/13 08:26:25;;;;;;;4.83;3.10;;;7.40;99.90;;;;;;5073649;28;20250;-77
2023/12/13 08:28:52;;;;;;;4.00;3.10;;;7.50;99.90;;;;;;5073883;28;20259;-77
2023/12/13 08:31:18;;;;;;;11.43;10.23;;;7.60;99.90;;;;;;5073758;28;20200;-77
2023/12/13 08:33:45;;;;;;;5.63;2.50;;;7.70;99.90;;;;;;5073649;28;20196;-77
2023/12/13 08:36:13;;;;;;;13.17;11.83;;;7.70;99.90;;;;;;5073454;28;20546;-78
2023/12/13 08:38:40;;;;;;;5.70;3.17;;;7.80;99.90;;;;;;5073628;28;20196;-77
2023/12/13 08:41:09;;;;;;;12.30;5.87;;;7.70;99.90;;;;;;5073613;28;20652;-76
2023/12/13 08:43:36;;;;;;;3.73;2.33;;;7.70;99.90;;;;;;5073864;28;20197;-77
2023/12/13 08:46:03;;;;;;;4.00;2.93;;;7.70;99.90;;;;;;5073571;28;20207;-79
2023/12/13 08:48:30;;;;;;;3.90;2.67;;;7.70;99.90;;;;;;5073488;28;20208;-75
2023/12/13 08:50:57;;;;;;;3.60;2.80;;;7.60;99.90;;;;;;5073828;28;20287;-75
2023/12/13 08:53:24;;;;;;;4.47;3.40;;;7.60;99.90;;;;;;5073333;28;20199;-80
2023/12/13 08:55:50;;;;;;;5.03;4.37;;;7.60;99.90;;;;;;5073054;28;20757;-74
2023/12/13 08:58:18;;;;;;;10.80;7.17;;;7.50;99.90;;;;;;5066811;28;20219;-74
2023/12/13 09:00:45;;;;;;;7.80;3.83;;;7.50;99.90;;;;;;5058041;28;20225;-76
2023/12/13 09:03:12;;;;;;;4.70;3.43;;;7.60;99.90;;;;;;5056058;28;20450;-77
2023/12/13 09:05:38;;;;;;;3.20;2.90;;;7.60;99.90;;;;;;5072831;28;20719;-75
2023/12/13 09:08:05;;;;;;;4.40;3.53;;;7.70;99.90;;;;;;5072528;28;20291;-75
2023/12/13 09:10:34;;;;;;;5.13;3.53;;;7.70;99.90;;;;;;5072972;28;20197;-80
2023/12/13 09:13:02;;;;;;;6.07;3.87;;;7.70;99.90;;;;;;5073221;28;20201;-76
2023/12/13 09:15:31;;;;;;;4.53;4.03;;;7.70;99.90;;;;;;5072592;28;20228;-75
2023/12/13 09:17:57;;;;;;;4.87;3.17;;;7.90;99.90;;;;;;5072736;28;20199;-76
2023/12/13 09:20:24;;;;;;;5.93;4.00;;;8.10;99.90;;;;;;5072644;28;20197;-76
2023/12/13 09:22:51;;;;;;;4.17;3.30;;;8.30;99.90;;;;;;5072935;28;20254;-76
2023/12/13 09:25:17;;;;;;;4.50;3.90;;;8.60;99.90;;;;;;5072719;28;20204;-77
2023/12/13 09:27:46;;;;;;;3.80;3.00;;;8.80;99.90;;;;;;5072492;28;20193;-76
2023/12/13 09:30:13;;;;;;;7.50;3.83;;;9.10;99.90;;;;;;5072634;28;20265;-75
2023/12/13 09:32:42;;;;;;;5.03;4.53;;;9.10;99.90;;;;;;5072357;28;20193;-75
2023/12/13 09:35:09;;;;;;;8.40;2.67;;;9.10;99.90;;;;;;5072658;28;20213;-75
2023/12/13 09:37:35;;;;;;;5.43;2.80;;;9.10;99.90;;;;;;5072568;28;20197;-75
2023/12/13 09:40:02;;;;;;;7.63;3.60;;;9.10;99.90;;;;;;5072625;28;20196;-76
2023/12/13 09:42:30;;;;;;;4.43;3.50;;;9.00;99.90;;;;;;5072255;28;20213;-75
2023/12/13 09:44:57;;;;;;;5.23;3.00;;;8.60;99.90;;;;;;5072254;28;20201;-77
2023/12/13 09:47:25;;;;;;;7.47;3.43;;;8.60;99.90;;;;;;5080542;28;20189;-77
2023/12/13 09:49:53;;;;;;;6.40;4.97;;;8.50;99.90;;;;;;5072406;28;20243;-75
2023/12/13 09:52:21;;;;;;;5.73;2.80;;;8.50;99.90;;;;;;5072381;28;20189;-75
2023/12/13 09:54:50;;;;;;;4.77;2.93;;;8.40;99.90;;;;;;5072294;28;20274;-74
2023/12/13 09:57:17;;;;;;;4.77;4.20;;;8.40;99.90;;;;;;5072145;28;20189;-77
2023/12/13 09:59:45;;;;;;;3.93;2.87;;;8.40;99.90;;;;;;5072308;28;20660;-76
2023/12/13 10:02:14;;;;;;;5.80;3.10;;;8.30;99.90;;;;;;5072183;28;20198;-77
2023/12/13 10:04:41;;;;;;;7.80;2.93;;;8.30;99.90;;;;;;5072498;28;20205;-75
2023/12/13 10:07:09;;;;;;;8.87;7.13;;;8.30;99.90;;;;;;5066714;28;20202;-74
2023/12/13 10:09:36;;;;;;;3.60;2.40;;;8.30;99.90;;;;;;5053290;28;20657;-76
2023/12/13 10:12:07;;;;;;;6.53;3.27;;;8.20;99.90;;;;;;5053193;28;20206;-76
2023/12/13 10:14:35;;;;;;;5.87;2.97;;;8.20;99.90;;;;;;5072034;28;20233;-76
2023/12/13 10:17:02;;;;;;;4.23;3.00;;;8.20;99.90;;;;;;5072513;28;20200;-75
2023/12/13 10:19:28;;;;;;;5.13;2.73;;;8.10;99.90;;;;;;5072402;28;20194;-75
2023/12/13 10:21:55;;;;;;;6.77;2.77;;;8.20;99.90;;;;;;5072425;28;20204;-77
2023/12/13 10:24:24;;;;;;;5.47;2.23;;;8.10;99.90;;;;;;5072200;28;20193;-77
2023/12/13 10:26:51;;;;;;;4.50;2.90;;;8.10;99.90;;;;;;5074634;28;20718;-77
2023/12/13 10:29:20;;;;;;;2.90;2.43;;;8.10;99.90;;;;;;5075824;28;20276;-75
2023/12/13 10:31:46;;;;;;;3.93;2.50;;;8.10;99.90;;;;;;5075920;28;20262;-77
2023/12/13 10:34:13;;;;;;;8.70;3.93;;;8.10;99.90;;;;;;5075026;28;20495;-77
2023/12/13 10:36:40;;;;;;;6.10;3.30;;;8.10;99.90;;;;;;5075799;28;20274;-77
2023/12/13 10:39:08;;;;;;;6.37;3.27;;;8.00;99.90;;;;;;5075282;28;20250;-77
2023/12/13 10:41:36;;;;;;;6.27;2.53;;;8.00;99.90;;;;;;5075513;28;20270;-77
2023/12/13 10:44:04;;;;;;;5.37;4.03;;;8.00;99.90;;;;;;5075794;28;20201;-77
2023/12/13 10:46:35;;;;;;;5.33;3.63;;;8.10;99.90;;;;;;5075745;28;20196;-77
2023/12/13 10:49:03;;;;;;;3.33;2.30;;;8.20;99.90;;;;;;5075443;28;20256;-77
2023/12/13 10:51:32;;;;;;;5.60;2.40;;;8.20;99.90;;;;;;5075803;28;20254;-78
2023/12/13 10:53:59;;;;;;;2.97;2.40;;;8.20;99.90;;;;;;5075703;28;20201;-78
2023/12/13 10:56:26;;;;;;;5.50;2.50;;;8.20;99.90;;;;;;5075236;28;20274;-78
2023/12/13 10:58:54;;;;;;;4.13;3.53;;;8.30;99.90;;;;;;5075533;28;20211;-78
2023/12/13 11:01:22;;;;;;;3.37;2.47;;;8.40;99.90;;;;;;5075494;28;20211;-78
2023/12/13 11:04:02;;;;;;;5.23;2.30;;;8.60;99.90;;;;;;5075212;28;20644;-78
2023/12/13 11:06:28;;;;;;;5.47;3.20;;;8.60;99.90;;;;;;5075352;28;20227;-78
2023/12/13 11:08:55;;;;;;;7.67;2.77;;;8.70;99.90;;;;;;5074968;28;20239;-78
2023/12/13 11:11:29;;;;;;;4.00;3.20;;;8.80;99.90;;;;;;5075411;28;20193;-78
2023/12/13 11:13:57;;;;;;;6.53;2.90;;;8.80;99.90;;;;;;5075285;28;20193;-78
2023/12/13 11:16:25;;;;;;;7.20;3.83;;;8.50;99.90;;;;;;5075018;28;20225;-79
2023/12/13 11:18:53;;;;;;;6.33;4.70;;;8.50;99.90;;;;;;5075306;28;20250;-78
2023/12/13 11:21:27;;;;;;;7.80;4.73;;;8.40;99.90;;;;;;5075040;28;20647;-78
2023/12/13 11:23:55;;;;;;;5.07;3.83;;;8.40;99.90;;;;;;5075250;28;20200;-78
2023/12/13 11:26:23;;;;;;;4.87;3.17;;;8.30;99.90;;;;;;5075056;28;20204;-78
2023/12/13 11:28:51;;;;;;;4.77;3.27;;;8.20;99.90;;;;;;5075224;28;20197;-79
2023/12/13 11:31:23;;;;;;;4.97;3.10;;;8.00;99.90;;;;;;5074912;28;20197;-79
2023/12/13 11:33:51;;;;;;;3.20;2.93;;;7.90;99.90;;;;;;5074978;28;20215;-79
2023/12/13 11:36:21;;;;;;;5.70;3.00;;;7.90;99.90;;;;;;5075046;28;20256;-78
2023/12/13 11:38:49;;;;;;;5.40;2.87;;;7.80;99.90;;;;;;5073779;28;20193;-80
2023/12/13 11:41:16;;;;;;;4.67;3.37;;;7.80;99.90;;;;;;5079331;28;20200;-93
2023/12/13 11:43:43;;;;;;;7.77;3.73;;;7.70;99.90;;;;;;5078218;28;20200;-89
2023/12/13 11:46:10;;;;;;;3.47;3.10;;;7.60;99.90;;;;;;5078373;28;20200;-87
2023/12/13 11:48:39;;;;;;;8.17;4.47;;;7.50;99.90;;;;;;5076994;28;20243;-88
2023/12/13 11:51:06;;;;;;;7.20;6.40;;;7.40;99.90;;;;;;5076307;28;20213;-88
2023/12/13 11:53:33;;;;;;;5.57;3.83;;;7.20;99.90;;;;;;5076949;28;20209;-87
2023/12/13 11:56:02;;;;;;;5.40;3.77;;;7.20;99.90;;;;;;5082268;28;20291;-96
2023/12/13 11:58:29;;;;;;;6.73;4.50;;;7.20;99.90;;;;;;5078708;28;20220;-82
2023/12/13 12:00:58;;;;;;;6.83;4.67;;;7.20;99.90;;;;;;5074914;28;20209;-82
2023/12/13 12:03:27;;;;;;;8.20;3.90;;;7.20;99.90;;;;;;5077063;28;20193;-83
2023/12/13 12:05:55;;;;;;;5.00;4.07;;;7.30;99.90;;;;;;5060777;28;20205;-82
2023/12/13 12:08:25;;;;;;;5.83;3.40;;;7.20;99.90;;;;;;5055468;28;20248;-82
2023/12/13 12:10:53;;;;;;;5.00;3.37;;;7.20;99.90;;;;;;5055177;28;20541;-82
2023/12/13 12:13:20;;;;;;;6.17;3.20;;;7.20;99.90;;;;;;5055092;28;20275;-82
2023/12/13 12:15:47;;;;;;;3.93;3.03;;;7.20;99.90;;;;;;5054436;28;20708;-82
2023/12/13 12:18:14;;;;;;;4.10;2.70;;;7.20;99.90;;;;;;5055537;28;20197;-81
2023/12/13 12:20:41;;;;;;;3.77;2.90;;;7.20;99.90;;;;;;5054713;28;20202;-83
2023/12/13 12:23:10;;;;;;;4.97;2.57;;;7.20;99.90;;;;;;5055118;28;20201;-83
2023/12/13 12:25:40;;;;;;;3.70;2.80;;;7.40;99.90;;;;;;5054809;28;20327;-83
2023/12/13 12:28:08;;;;;;;2.77;2.00;;;8.10;99.90;;;;;;5054533;28;20251;-81
2023/12/13 12:30:34;;;;;;;2.77;1.80;;;9.10;99.90;;;;;;5055260;28;20206;-81
2023/12/13 12:33:01;;;;;;;3.13;1.73;;;11.90;99.90;;;;;;5053858;28;20645;-82
2023/12/13 12:35:28;;;;;;;4.67;2.00;;;11.60;99.90;;;;;;5054329;28;20263;-81
2023/12/13 12:37:55;;;;;;;4.47;2.10;;;11.80;99.90;;;;;;5055921;28;20661;-81
2023/12/13 12:40:23;;;;;;;2.87;1.87;;;11.00;99.90;;;;;;5072280;28;20224;-85
2023/12/13 12:42:50;;;;;;;1.40;1.30;;;10.30;99.90;;;;;;5077250;28;20198;-85
2023/12/13 12:45:17;;;;;;;4.17;1.57;;;10.40;99.90;;;;;;5068030;28;20201;-86
2023/12/13 12:47:43;;;;;;;1.40;1.30;;;10.50;99.90;;;;;;5070942;28;20245;-88
2023/12/13 12:50:10;;;;;;;2.27;1.20;;;10.00;99.90;;;;;;5074709;28;20222;-86
2023/12/13 12:52:38;;;;;;;2.43;1.33;;;9.80;99.90;;;;;;5063232;28;20205;-82
2023/12/13 12:55:05;;;;;;;1.43;1.30;;;9.30;99.90;;;;;;5074940;28;20307;-90